sensor_id;sensor_type;location;lat;lon;timestamp;pressure;altitude;pressure_sealevel;temperature;humidity
75913;BME280;64592;52.168;21.040;2023-05-19T00:04:42;101528.84;;;11.36;80.82
75913;BME280;64592;52.168;21.040;2023-05-19T00:09:45;101532.63;;;11.34;81.04
75913;BME280;64592;52.168;21.040;2023-05-19T00:14:49;101535.41;;;11.32;80.94
75913;BME280;64592;52.168;21.040;2023-05-19T00:19:51;101538.47;;;11.26;81.34
75913;BME280;64592;52.168;21.040;2023-05-19T00:24:54;101528.81;;;11.22;81.19
75913;BME280;64592;52.168;21.040;2023-05-19T00:29:57;101521.88;;;11.18;81.77
75913;BME280;64592;52.168;21.040;2023-05-19T00:34:58;101521.25;;;11.13;82.10
75913;BME280;64592;52.168;21.040;2023-05-19T00:40:00;101523.34;;;11.08;81.50
75913;BME280;64592;52.168;21.040;2023-05-19T00:45:04;101519.00;;;11.05;82.00
75913;BME280;64592;52.168;21.040;2023-05-19T00:50:06;101519.28;;;11.01;81.54
75913;BME280;64592;52.168;21.040;2023-05-19T00:55:08;101521.38;;;10.96;81.70
75913;BME280;64592;52.168;21.040;2023-05-19T01:00:13;101519.66;;;10.95;81.76
75913;BME280;64592;52.168;21.040;2023-05-19T01:05:16;101510.69;;;10.94;81.63
75913;BME280;64592;52.168;21.040;2023-05-19T01:10:18;101509.63;;;10.97;81.99
75913;BME280;64592;52.168;21.040;2023-05-19T01:15:24;101500.94;;;10.92;82.71
75913;BME280;64592;52.168;21.040;2023-05-19T01:20:34;101507.91;;;10.96;82.39
75913;BME280;64592;52.168;21.040;2023-05-19T01:25:57;101506.16;;;10.95;82.43
75913;BME280;64592;52.168;21.040;2023-05-19T01:31:08;101500.69;;;10.96;83.10
75913;BME280;64592;52.168;21.040;2023-05-19T01:36:16;101506.25;;;10.93;82.58
75913;BME280;64592;52.168;21.040;2023-05-19T01:41:20;101496.59;;;10.89;82.67
75913;BME280;64592;52.168;21.040;2023-05-19T01:46:26;101498.31;;;10.90;82.89
75913;BME280;64592;52.168;21.040;2023-05-19T01:51:28;101490.34;;;10.88;82.89
75913;BME280;64592;52.168;21.040;2023-05-19T01:56:39;101495.53;;;10.92;82.74
75913;BME280;64592;52.168;21.040;2023-05-19T02:01:50;101491.00;;;10.92;83.14
75913;BME280;64592;52.168;21.040;2023-05-19T02:07:00;101486.66;;;10.89;83.14
75913;BME280;64592;52.168;21.040;2023-05-19T02:12:10;101490.06;;;10.93;83.02
75913;BME280;64592;52.168;21.040;2023-05-19T02:17:17;101487.44;;;10.92;83.13
75913;BME280;64592;52.168;21.040;2023-05-19T02:22:21;101475.19;;;10.86;83.76
75913;BME280;64592;52.168;21.040;2023-05-19T02:27:24;101485.53;;;10.94;84.03
75913;BME280;64592;52.168;21.040;2023-05-19T02:32:28;101482.81;;;10.94;84.17
75913;BME280;64592;52.168;21.040;2023-05-19T02:37:29;101488.38;;;10.90;84.52
75913;BME280;64592;52.168;21.040;2023-05-19T02:42:32;101486.66;;;10.89;84.36
75913;BME280;64592;52.168;21.040;2023-05-19T02:47:37;101483.09;;;10.89;84.61
75913;BME280;64592;52.168;21.040;2023-05-19T02:52:40;101484.81;;;10.90;85.05
75913;BME280;64592;52.168;21.040;2023-05-19T02:57:44;101485.69;;;10.90;84.53
75913;BME280;64592;52.168;21.040;2023-05-19T03:02:48;101480.28;;;10.90;85.11
75913;BME280;64592;52.168;21.040;2023-05-19T03:07:52;101490.50;;;10.85;85.26
75913;BME280;64592;52.168;21.040;2023-05-19T03:12:53;101496.06;;;10.82;85.63
75913;BME280;64592;52.168;21.040;2023-05-19T03:17:57;101490.66;;;10.82;85.34
75913;BME280;64592;52.168;21.040;2023-05-19T03:23:01;101494.50;;;10.78;86.40
75913;BME280;64592;52.168;21.040;2023-05-19T03:28:03;101494.44;;;10.80;86.33
75913;BME280;64592;52.168;21.040;2023-05-19T03:33:11;101500.69;;;10.80;86.62
75913;BME280;64592;52.168;21.040;2023-05-19T03:38:15;101499.75;;;10.81;86.76
75913;BME280;64592;52.168;21.040;2023-05-19T03:43:17;101495.91;;;10.70;86.92
75913;BME280;64592;52.168;21.040;2023-05-19T03:48:20;101497.13;;;10.64;87.53
75913;BME280;64592;52.168;21.040;2023-05-19T03:53:22;101494.25;;;10.67;87.74
75913;BME280;64592;52.168;21.040;2023-05-19T03:58:25;101491.75;;;10.64;87.93
75913;BME280;64592;52.168;21.040;2023-05-19T04:03:32;101495.22;;;10.66;88.46
75913;BME280;64592;52.168;21.040;2023-05-19T04:08:35;101495.22;;;10.66;88.94
75913;BME280;64592;52.168;21.040;2023-05-19T04:13:36;101495.22;;;10.66;88.97
75913;BME280;64592;52.168;21.040;2023-05-19T04:18:40;101489.66;;;10.69;88.85
75913;BME280;64592;52.168;21.040;2023-05-19T04:23:41;101493.13;;;10.71;89.11
75913;BME280;64592;52.168;21.040;2023-05-19T04:28:43;101493.41;;;10.67;89.42
75913;BME280;64592;52.168;21.040;2023-05-19T04:33:47;101497.94;;;10.66;89.98
75913;BME280;64592;52.168;21.040;2023-05-19T04:38:49;101500.44;;;10.69;89.73
75913;BME280;64592;52.168;21.040;2023-05-19T04:43:54;101491.53;;;10.67;89.61
75913;BME280;64592;52.168;21.040;2023-05-19T04:48:58;101496.78;;;10.70;89.76
75913;BME280;64592;52.168;21.040;2023-05-19T04:54:00;101495.81;;;10.71;90.25
75913;BME280;64592;52.168;21.040;2023-05-19T04:59:04;101496.09;;;10.67;90.04
75913;BME280;64592;52.168;21.040;2023-05-19T05:04:07;101498.53;;;10.71;90.03
75913;BME280;64592;52.168;21.040;2023-05-19T05:09:09;101501.81;;;10.76;89.74
75913;BME280;64592;52.168;21.040;2023-05-19T05:14:13;101497.28;;;10.77;89.49
75913;BME280;64592;52.168;21.040;2023-05-19T05:19:18;101495.66;;;10.74;89.59
75913;BME280;64592;52.168;21.040;2023-05-19T05:24:25;101496.78;;;10.70;89.54
75913;BME280;64592;52.168;21.040;2023-05-19T05:29:32;101504.78;;;10.72;89.75
75913;BME280;64592;52.168;21.040;2023-05-19T05:34:35;101500.00;;;10.77;90.11
75913;BME280;64592;52.168;21.040;2023-05-19T05:39:37;101499.75;;;10.81;90.06
75913;BME280;64592;52.168;21.040;2023-05-19T05:44:38;101493.28;;;10.84;89.63
75913;BME280;64592;52.168;21.040;2023-05-19T05:49:47;101493.03;;;10.88;89.67
75913;BME280;64592;52.168;21.040;2023-05-19T05:54:51;101486.47;;;10.93;90.08
75913;BME280;64592;52.168;21.040;2023-05-19T05:59:52;101483.00;;;10.90;90.07
75913;BME280;64592;52.168;21.040;2023-05-19T06:04:56;101496.75;;;10.86;89.95
75913;BME280;64592;52.168;21.040;2023-05-19T06:09:59;101499.53;;;10.84;90.19
75913;BME280;64592;52.168;21.040;2023-05-19T06:15:01;101504.56;;;10.90;91.41
75913;BME280;64592;52.168;21.040;2023-05-19T06:20:06;101500.56;;;10.98;90.42
75913;BME280;64592;52.168;21.040;2023-05-19T06:25:09;101508.31;;;11.04;90.56
75913;BME280;64592;52.168;21.040;2023-05-19T06:30:12;101501.06;;;11.04;91.50
75913;BME280;64592;52.168;21.040;2023-05-19T06:35:16;101500.22;;;11.04;91.07
75913;BME280;64592;52.168;21.040;2023-05-19T06:40:18;101500.03;;;11.07;91.25
75913;BME280;64592;52.168;21.040;2023-05-19T06:45:22;101503.88;;;11.03;90.33
75913;BME280;64592;52.168;21.040;2023-05-19T06:50:25;101502.13;;;11.02;91.50
75913;BME280;64592;52.168;21.040;2023-05-19T06:55:29;101501.25;;;11.01;91.26
75913;BME280;64592;52.168;21.040;2023-05-19T07:00:34;101502.94;;;11.04;91.59
75913;BME280;64592;52.168;21.040;2023-05-19T07:05:37;101501.78;;;11.08;92.29
75913;BME280;64592;52.168;21.040;2023-05-19T07:10:39;101498.78;;;11.12;92.18
75913;BME280;64592;52.168;21.040;2023-05-19T07:15:42;101502.63;;;11.08;91.86
75913;BME280;64592;52.168;21.040;2023-05-19T07:20:50;101497.25;;;11.08;92.73
75913;BME280;64592;52.168;21.040;2023-05-19T07:25:53;101500.44;;;11.15;92.83
75913;BME280;64592;52.168;21.040;2023-05-19T07:30:55;101496.41;;;11.22;92.55
75913;BME280;64592;52.168;21.040;2023-05-19T07:35:58;101497.63;;;11.32;92.23
75913;BME280;64592;52.168;21.040;2023-05-19T07:41:00;101493.25;;;11.29;91.26
75913;BME280;64592;52.168;21.040;2023-05-19T07:46:03;101489.69;;;11.29;90.82
75913;BME280;64592;52.168;21.040;2023-05-19T07:51:06;101486.63;;;11.35;90.88
75913;BME280;64592;52.168;21.040;2023-05-19T07:56:09;101504.47;;;11.38;91.21
75913;BME280;64592;52.168;21.040;2023-05-19T08:01:12;101500.34;;;11.46;90.81
75913;BME280;64592;52.168;21.040;2023-05-19T08:06:18;101499.28;;;11.49;91.19
75913;BME280;64592;52.168;21.040;2023-05-19T08:11:22;101499.00;;;11.53;90.79
75913;BME280;64592;52.168;21.040;2023-05-19T08:16:23;101494.47;;;11.54;90.67
75913;BME280;64592;52.168;21.040;2023-05-19T08:21:26;101508.06;;;11.52;90.37
75913;BME280;64592;52.168;21.040;2023-05-19T08:26:29;101499.59;;;11.58;90.78
75913;BME280;64592;52.168;21.040;2023-05-19T08:31:32;101496.72;;;11.61;90.64
75913;BME280;64592;52.168;21.040;2023-05-19T08:36:35;101496.88;;;11.58;90.06
75913;BME280;64592;52.168;21.040;2023-05-19T08:41:38;101500.16;;;11.63;89.87
75913;BME280;64592;52.168;21.040;2023-05-19T08:46:40;101499.03;;;11.67;89.67
75913;BME280;64592;52.168;21.040;2023-05-19T08:51:51;101499.59;;;11.73;90.05
75913;BME280;64592;52.168;21.040;2023-05-19T08:56:56;101495.00;;;11.75;89.86
75913;BME280;64592;52.168;21.040;2023-05-19T09:01:58;101496.84;;;11.74;88.95
75913;BME280;64592;52.168;21.040;2023-05-19T09:07:02;101500.25;;;11.78;89.18
75913;BME280;64592;52.168;21.040;2023-05-19T09:12:04;101497.16;;;11.84;89.42
75913;BME280;64592;52.168;21.040;2023-05-19T09:23:04;101496.59;;;11.93;87.81
75913;BME280;64592;52.168;21.040;2023-05-19T09:28:08;101494.44;;;11.98;88.62
75913;BME280;64592;52.168;21.040;2023-05-19T09:33:10;101497.72;;;12.03;87.59
75913;BME280;64592;52.168;21.040;2023-05-19T09:38:18;101494.63;;;12.09;87.55
75913;BME280;64592;52.168;21.040;2023-05-19T09:43:20;101501.28;;;12.18;87.62
75913;BME280;64592;52.168;21.040;2023-05-19T09:48:25;101499.06;;;12.24;87.56
75913;BME280;64592;52.168;21.040;2023-05-19T09:53:28;101490.94;;;12.24;86.07
75913;BME280;64592;52.168;21.040;2023-05-19T09:58:31;101490.94;;;12.24;86.98
75913;BME280;64592;52.168;21.040;2023-05-19T10:03:35;101497.81;;;12.30;86.48
75913;BME280;64592;52.168;21.040;2023-05-19T10:08:41;101495.78;;;12.33;86.06
75913;BME280;64592;52.168;21.040;2023-05-19T10:13:44;101492.75;;;12.38;85.45
75913;BME280;64592;52.168;21.040;2023-05-19T10:18:46;101494.31;;;12.42;85.29
75913;BME280;64592;52.168;21.040;2023-05-19T10:23:51;101485.69;;;12.50;86.55
75913;BME280;64592;52.168;21.040;2023-05-19T10:28:53;101483.16;;;12.61;84.90
75913;BME280;64592;52.168;21.040;2023-05-19T10:34:04;101479.75;;;12.71;85.35
75913;BME280;64592;52.168;21.040;2023-05-19T10:39:21;101480.47;;;12.88;84.57
75913;BME280;64592;52.168;21.040;2023-05-19T10:44:34;101473.56;;;12.96;82.94
75913;BME280;64592;52.168;21.040;2023-05-19T10:49:41;101479.31;;;13.04;83.12
75913;BME280;64592;52.168;21.040;2023-05-19T10:54:44;101475.63;;;13.05;81.47
75913;BME280;64592;52.168;21.040;2023-05-19T10:59:47;101467.13;;;13.11;82.17
75913;BME280;64592;52.168;21.040;2023-05-19T11:04:49;101475.03;;;13.14;82.62
75913;BME280;64592;52.168;21.040;2023-05-19T11:09:59;101474.72;;;13.19;83.39
75913;BME280;64592;52.168;21.040;2023-05-19T11:15:08;101477.31;;;13.20;81.75
75913;BME280;64592;52.168;21.040;2023-05-19T11:20:20;101476.69;;;13.17;81.85
75913;BME280;64592;52.168;21.040;2023-05-19T11:25:40;101477.66;;;13.29;82.30
75913;BME280;64592;52.168;21.040;2023-05-19T11:30:43;101472.59;;;13.37;81.92
75913;BME280;64592;52.168;21.040;2023-05-19T11:35:46;101473.66;;;13.34;81.44
75913;BME280;64592;52.168;21.040;2023-05-19T11:40:53;101471.53;;;13.39;81.37
75913;BME280;64592;52.168;21.040;2023-05-19T11:45:55;101473.81;;;13.45;81.95
75913;BME280;64592;52.168;21.040;2023-05-19T11:50:59;101479.03;;;13.48;81.46
75913;BME280;64592;52.168;21.040;2023-05-19T11:56:03;101471.53;;;13.52;81.77
75913;BME280;64592;52.168;21.040;2023-05-19T12:01:05;101473.06;;;13.56;81.99
75913;BME280;64592;52.168;21.040;2023-05-19T12:06:07;101472.84;;;13.59;80.97
75913;BME280;64592;52.168;21.040;2023-05-19T12:11:10;101473.59;;;13.61;80.95
75913;BME280;64592;52.168;21.040;2023-05-19T12:16:13;101477.91;;;13.64;80.34
75913;BME280;64592;52.168;21.040;2023-05-19T12:21:15;101476.75;;;13.68;80.29
75913;BME280;64592;52.168;21.040;2023-05-19T12:26:18;101479.13;;;13.72;80.58
75913;BME280;64592;52.168;21.040;2023-05-19T12:31:21;101467.53;;;13.83;80.75
75913;BME280;64592;52.168;21.040;2023-05-19T12:36:23;101472.63;;;13.87;80.43
75913;BME280;64592;52.168;21.040;2023-05-19T12:41:28;101479.16;;;13.85;79.39
75913;BME280;64592;52.168;21.040;2023-05-19T12:46:31;101470.69;;;13.77;79.65
75913;BME280;64592;52.168;21.040;2023-05-19T12:51:33;101474.38;;;13.76;80.06
75913;BME280;64592;52.168;21.040;2023-05-19T12:56:48;101474.25;;;13.77;79.70
75913;BME280;64592;52.168;21.040;2023-05-19T13:01:56;101467.00;;;13.78;79.76
75913;BME280;64592;52.168;21.040;2023-05-19T13:06:58;101463.28;;;13.79;80.36
75913;BME280;64592;52.168;21.040;2023-05-19T13:12:03;101465.91;;;13.80;79.67
75913;BME280;64592;52.168;21.040;2023-05-19T13:17:05;101457.00;;;13.78;80.44
75913;BME280;64592;52.168;21.040;2023-05-19T13:22:07;101466.75;;;13.81;80.25
75913;BME280;64592;52.168;21.040;2023-05-19T13:27:13;101463.97;;;13.70;79.71
75913;BME280;64592;52.168;21.040;2023-05-19T13:32:15;101473.06;;;13.69;79.97
75913;BME280;64592;52.168;21.040;2023-05-19T13:37:17;101468.50;;;13.69;80.93
75913;BME280;64592;52.168;21.040;2023-05-19T13:42:20;101463.84;;;13.71;80.57
75913;BME280;64592;52.168;21.040;2023-05-19T13:47:22;101463.97;;;13.70;80.64
75913;BME280;64592;52.168;21.040;2023-05-19T13:52:25;101462.00;;;13.72;81.37
75913;BME280;64592;52.168;21.040;2023-05-19T13:57:30;101455.28;;;13.77;80.94
75913;BME280;64592;52.168;21.040;2023-05-19T14:02:32;101458.53;;;13.82;81.33
75913;BME280;64592;52.168;21.040;2023-05-19T14:07:35;101461.03;;;13.85;80.66
75913;BME280;64592;52.168;21.040;2023-05-19T14:12:39;101454.41;;;13.89;81.31
75913;BME280;64592;52.168;21.040;2023-05-19T14:17:41;101471.88;;;13.85;80.81
75913;BME280;64592;52.168;21.040;2023-05-19T14:22:45;101461.25;;;13.82;80.52
75913;BME280;64592;52.168;21.040;2023-05-19T14:27:48;101467.63;;;13.81;80.97
75913;BME280;64592;52.168;21.040;2023-05-19T14:32:51;101471.13;;;13.83;80.97
75913;BME280;64592;52.168;21.040;2023-05-19T14:37:53;101470.00;;;13.86;81.68
75913;BME280;64592;52.168;21.040;2023-05-19T14:42:56;101469.81;;;13.89;81.50
75913;BME280;64592;52.168;21.040;2023-05-19T14:48:01;101463.31;;;13.91;81.85
75913;BME280;64592;52.168;21.040;2023-05-19T14:53:02;101472.16;;;13.93;82.34
75913;BME280;64592;52.168;21.040;2023-05-19T14:58:05;101466.75;;;13.93;80.96
75913;BME280;64592;52.168;21.040;2023-05-19T15:03:07;101467.00;;;13.90;81.05
75913;BME280;64592;52.168;21.040;2023-05-19T15:08:09;101473.38;;;13.89;81.18
75913;BME280;64592;52.168;21.040;2023-05-19T15:13:12;101480.00;;;13.85;80.96
75913;BME280;64592;52.168;21.040;2023-05-19T15:18:14;101483.56;;;13.86;81.59
75913;BME280;64592;52.168;21.040;2023-05-19T15:23:17;101483.56;;;13.86;81.67
75913;BME280;64592;52.168;21.040;2023-05-19T15:28:20;101481.97;;;13.83;81.70
75913;BME280;64592;52.168;21.040;2023-05-19T15:33:22;101475.56;;;13.84;81.73
75913;BME280;64592;52.168;21.040;2023-05-19T15:38:26;101475.56;;;13.84;81.70
75913;BME280;64592;52.168;21.040;2023-05-19T15:43:29;101474.59;;;13.85;81.77
75913;BME280;64592;52.168;21.040;2023-05-19T15:48:31;101468.31;;;13.85;81.37
75913;BME280;64592;52.168;21.040;2023-05-19T15:53:33;101467.44;;;13.84;81.83
75913;BME280;64592;52.168;21.040;2023-05-19T15:58:37;101470.00;;;13.86;81.90
75913;BME280;64592;52.168;21.040;2023-05-19T16:03:38;101459.31;;;13.84;82.00
75913;BME280;64592;52.168;21.040;2023-05-19T16:08:40;101461.03;;;13.85;82.30
75913;BME280;64592;52.168;21.040;2023-05-19T16:13:43;101453.75;;;13.86;82.11
75913;BME280;64592;52.168;21.040;2023-05-19T16:18:47;101450.94;;;13.87;82.56
75913;BME280;64592;52.168;21.040;2023-05-19T16:23:50;101453.63;;;13.87;82.45
75913;BME280;64592;52.168;21.040;2023-05-19T16:28:53;101462.53;;;13.89;83.10
75913;BME280;64592;52.168;21.040;2023-05-19T16:33:55;101452.91;;;13.85;82.72
75913;BME280;64592;52.168;21.040;2023-05-19T16:38:56;101457.31;;;13.86;82.69
75913;BME280;64592;52.168;21.040;2023-05-19T16:43:59;101453.88;;;13.84;82.65
75913;BME280;64592;52.168;21.040;2023-05-19T16:49:02;101455.81;;;13.82;82.68
75913;BME280;64592;52.168;21.040;2023-05-19T16:54:04;101460.03;;;13.86;82.92
75913;BME280;64592;52.168;21.040;2023-05-19T16:59:09;101458.31;;;13.85;82.89
75913;BME280;64592;52.168;21.040;2023-05-19T17:04:10;101454.63;;;13.86;83.52
75913;BME280;64592;52.168;21.040;2023-05-19T17:09:13;101452.13;;;13.83;83.27
75913;BME280;64592;52.168;21.040;2023-05-19T17:14:16;101455.72;;;13.84;82.83
75913;BME280;64592;52.168;21.040;2023-05-19T17:19:20;101449.44;;;13.83;82.90
75913;BME280;64592;52.168;21.040;2023-05-19T17:24:22;101448.56;;;13.83;83.55
75913;BME280;64592;52.168;21.040;2023-05-19T17:29:25;101451.16;;;13.84;83.16
75913;BME280;64592;52.168;21.040;2023-05-19T17:34:27;101448.56;;;13.83;83.70
75913;BME280;64592;52.168;21.040;2023-05-19T17:39:33;101453.88;;;13.84;83.87
75913;BME280;64592;52.168;21.040;2023-05-19T17:44:37;101449.44;;;13.83;83.57
75913;BME280;64592;52.168;21.040;2023-05-19T17:49:38;101456.59;;;13.84;83.65
75913;BME280;64592;52.168;21.040;2023-05-19T17:54:41;101455.72;;;13.84;83.92
75913;BME280;64592;52.168;21.040;2023-05-19T17:59:45;101459.31;;;13.84;83.82
75913;BME280;64592;52.168;21.040;2023-05-19T18:04:47;101457.56;;;13.83;83.80
75913;BME280;64592;52.168;21.040;2023-05-19T18:09:50;101462.13;;;13.83;83.41
75913;BME280;64592;52.168;21.040;2023-05-19T18:14:53;101460.38;;;13.82;83.58
75913;BME280;64592;52.168;21.040;2023-05-19T18:19:55;101447.78;;;13.81;83.94
75913;BME280;64592;52.168;21.040;2023-05-19T18:24:57;101463.19;;;13.80;83.79
75913;BME280;64592;52.168;21.040;2023-05-19T18:30:00;101465.03;;;13.80;84.03
75913;BME280;64592;52.168;21.040;2023-05-19T18:35:03;101471.31;;;13.80;84.28
75913;BME280;64592;52.168;21.040;2023-05-19T18:40:06;101474.25;;;13.77;84.82
75913;BME280;64592;52.168;21.040;2023-05-19T18:45:11;101478.91;;;13.75;84.67
75913;BME280;64592;52.168;21.040;2023-05-19T18:50:14;101484.34;;;13.75;84.89
75913;BME280;64592;52.168;21.040;2023-05-19T18:55:16;101483.47;;;13.75;84.75
75913;BME280;64592;52.168;21.040;2023-05-19T19:00:19;101492.56;;;13.74;84.56
75913;BME280;64592;52.168;21.040;2023-05-19T19:05:21;101489.00;;;13.73;84.74
75913;BME280;64592;52.168;21.040;2023-05-19T19:10:25;101494.66;;;13.70;84.83
75913;BME280;64592;52.168;21.040;2023-05-19T19:15:28;101498.00;;;13.74;84.63
75913;BME280;64592;52.168;21.040;2023-05-19T19:20:30;101499.72;;;13.75;85.07
75913;BME280;64592;52.168;21.040;2023-05-19T19:25:32;101509.69;;;13.74;85.02
75913;BME280;64592;52.168;21.040;2023-05-19T19:30:36;101504.28;;;13.74;85.73
75913;BME280;64592;52.168;21.040;2023-05-19T19:35:40;101507.00;;;13.74;85.98
75913;BME280;64592;52.168;21.040;2023-05-19T19:40:41;101507.19;;;13.71;85.64
75913;BME280;64592;52.168;21.040;2023-05-19T19:45:45;101510.03;;;13.70;86.34
75913;BME280;64592;52.168;21.040;2023-05-19T19:50:52;101513.63;;;13.70;85.95
75913;BME280;64592;52.168;21.040;2023-05-19T19:55:57;101516.31;;;13.70;85.61
75913;BME280;64592;52.168;21.040;2023-05-19T20:01:02;101512.50;;;13.73;86.40
75913;BME280;64592;52.168;21.040;2023-05-19T20:06:05;101520.88;;;13.70;86.59
75913;BME280;64592;52.168;21.040;2023-05-19T20:11:08;101519.91;;;13.71;87.07
75913;BME280;64592;52.168;21.040;2023-05-19T20:16:12;101522.72;;;13.69;87.38
75913;BME280;64592;52.168;21.040;2023-05-19T20:21:13;101521.75;;;13.70;87.51
75913;BME280;64592;52.168;21.040;2023-05-19T20:26:16;101521.75;;;13.70;87.67
75913;BME280;64592;52.168;21.040;2023-05-19T20:31:19;101511.88;;;13.69;88.40
75913;BME280;64592;52.168;21.040;2023-05-19T20:36:22;101523.69;;;13.68;88.38
75913;BME280;64592;52.168;21.040;2023-05-19T20:41:24;101521.19;;;13.65;88.93
75913;BME280;64592;52.168;21.040;2023-05-19T20:46:28;101521.19;;;13.65;88.78
75913;BME280;64592;52.168;21.040;2023-05-19T20:51:31;101525.09;;;13.61;88.99
75913;BME280;64592;52.168;21.040;2023-05-19T20:56:33;101526.81;;;13.62;89.19
75913;BME280;64592;52.168;21.040;2023-05-19T21:01:36;101525.97;;;13.62;89.39
75913;BME280;64592;52.168;21.040;2023-05-19T21:06:38;101523.34;;;13.60;89.15
75913;BME280;64592;52.168;21.040;2023-05-19T21:11:42;101531.47;;;13.60;89.85
75913;BME280;64592;52.168;21.040;2023-05-19T21:16:49;101533.31;;;13.59;90.12
75913;BME280;64592;52.168;21.040;2023-05-19T21:21:52;101536.13;;;13.58;90.53
75913;BME280;64592;52.168;21.040;2023-05-19T21:26:54;101528.97;;;13.57;90.97
75913;BME280;64592;52.168;21.040;2023-05-19T21:31:57;101520.97;;;13.55;91.12
75913;BME280;64592;52.168;21.040;2023-05-19T21:36:59;101523.69;;;13.55;91.24
75913;BME280;64592;52.168;21.040;2023-05-19T21:42:01;101518.56;;;13.51;92.28
75913;BME280;64592;52.168;21.040;2023-05-19T21:47:08;101522.03;;;13.53;91.47
75913;BME280;64592;52.168;21.040;2023-05-19T21:52:10;101514.88;;;13.52;91.92
75913;BME280;64592;52.168;21.040;2023-05-19T21:57:14;101523.88;;;13.52;91.86
75913;BME280;64592;52.168;21.040;2023-05-19T22:02:17;101521.38;;;13.49;92.53
75913;BME280;64592;52.168;21.040;2023-05-19T22:07:19;101525.91;;;13.49;92.33
75913;BME280;64592;52.168;21.040;2023-05-19T22:12:29;101517.78;;;13.49;92.82
75913;BME280;64592;52.168;21.040;2023-05-19T22:17:38;101532.34;;;13.48;92.55
75913;BME280;64592;52.168;21.040;2023-05-19T22:22:41;101518.78;;;13.48;92.87
75913;BME280;64592;52.168;21.040;2023-05-19T22:27:44;101514.34;;;13.47;92.88
75913;BME280;64592;52.168;21.040;2023-05-19T22:32:47;101524.41;;;13.45;92.69
75913;BME280;64592;52.168;21.040;2023-05-19T22:37:48;101520.72;;;13.46;92.86
75913;BME280;64592;52.168;21.040;2023-05-19T22:42:50;101520.94;;;13.43;92.57
75913;BME280;64592;52.168;21.040;2023-05-19T22:47:53;101513.13;;;13.38;91.38
75913;BME280;64592;52.168;21.040;2023-05-19T22:52:55;101520.19;;;13.41;90.74
75913;BME280;64592;52.168;21.040;2023-05-19T22:57:59;101524.59;;;13.42;90.31
75913;BME280;64592;52.168;21.040;2023-05-19T23:03:02;101521.03;;;13.41;90.23
75913;BME280;64592;52.168;21.040;2023-05-19T23:08:05;101525.38;;;13.44;89.88
75913;BME280;64592;52.168;21.040;2023-05-19T23:13:06;101513.75;;;13.42;88.91
75913;BME280;64592;52.168;21.040;2023-05-19T23:18:10;101518.31;;;13.41;87.77
75913;BME280;64592;52.168;21.040;2023-05-19T23:23:14;101517.47;;;13.41;87.51
75913;BME280;64592;52.168;21.040;2023-05-19T23:28:16;101513.91;;;13.40;86.90
75913;BME280;64592;52.168;21.040;2023-05-19T23:33:23;101510.31;;;13.40;86.42
75913;BME280;64592;52.168;21.040;2023-05-19T23:38:26;101513.03;;;13.40;86.02
75913;BME280;64592;52.168;21.040;2023-05-19T23:43:36;101511.28;;;13.39;86.02
75913;BME280;64592;52.168;21.040;2023-05-19T23:48:39;101508.59;;;13.39;86.65
75913;BME280;64592;52.168;21.040;2023-05-19T23:53:44;101514.00;;;13.39;86.10
75913;BME280;64592;52.168;21.040;2023-05-19T23:58:45;101502.38;;;13.37;85.85
